Time;durP1;ratioP1;P1;durP2;ratioP2;P2;SDS_P1;SDS_P2;PMS_P1;PMS_P2;Temp;Humidity;BMP_temperature;BMP_pressure;BME280_temperature;BME280_humidity;BME280_pressure;Samples;Min_cycle;Max_cycle;Signal;HPM_P1;HPM_P2
2021/03/18 00:01:40;;;;;;;7.90;3.50;;;;;;;;;;5114814;28;20076;-55
2021/03/18 00:04:07;;;;;;;6.78;3.38;;;;;;;;;;5103982;28;20016;-55
2021/03/18 00:06:33;;;;;;;8.57;3.38;;;;;;;;;;5104434;28;20024;-54
2021/03/18 00:08:59;;;;;;;6.97;3.17;;;;;;;;;;5095341;28;20023;-54
2021/03/18 00:11:25;;;;;;;5.90;3.03;;;;;;;;;;5100981;28;20099;-54
2021/03/18 00:13:51;;;;;;;8.25;2.85;;;;;;;;;;5102626;28;20020;-55
2021/03/18 00:16:18;;;;;;;3.65;2.25;;;;;;;;;;5095858;28;20036;-54
2021/03/18 00:18:44;;;;;;;6.13;3.00;;;;;;;;;;5095300;28;20353;-55
2021/03/18 00:21:10;;;;;;;6.70;2.83;;;;;;;;;;5103846;28;20023;-54
2021/03/18 00:23:36;;;;;;;5.78;2.70;;;;;;;;;;5112507;28;20027;-54
2021/03/18 00:26:02;;;;;;;8.80;3.30;;;;;;;;;;5115858;28;20019;-54
2021/03/18 00:28:29;;;;;;;5.53;3.25;;;;;;;;;;5115524;28;20024;-55
2021/03/18 00:30:55;;;;;;;8.07;3.50;;;;;;;;;;5115893;28;20030;-55
2021/03/18 00:33:21;;;;;;;6.03;3.80;;;;;;;;;;5113392;28;20072;-55
2021/03/18 00:35:47;;;;;;;5.28;2.80;;;;;;;;;;5107028;28;20015;-54
2021/03/18 00:38:13;;;;;;;6.10;2.80;;;;;;;;;;5115221;28;20020;-55
2021/03/18 00:40:41;;;;;;;9.40;4.18;;;;;;;;;;5115772;28;20076;-54
2021/03/18 00:43:09;;;;;;;7.78;3.47;;;;;;;;;;5115368;28;20475;-54
2021/03/18 00:45:36;;;;;;;9.02;3.63;;;;;;;;;;5115372;28;20035;-54
2021/03/18 00:48:04;;;;;;;9.27;2.92;;;;;;;;;;5115293;28;20034;-54
2021/03/18 00:50:31;;;;;;;7.60;2.92;;;;;;;;;;5115360;27;20023;-55
2021/03/18 00:52:58;;;;;;;7.10;3.10;;;;;;;;;;5115561;28;20426;-55
2021/03/18 00:55:24;;;;;;;10.65;2.97;;;;;;;;;;5114485;28;20012;-54
2021/03/18 00:57:50;;;;;;;6.10;3.25;;;;;;;;;;5114950;28;20433;-54
2021/03/18 01:00:19;;;;;;;7.45;3.53;;;;;;;;;;5115180;28;20349;-55
2021/03/18 01:02:46;;;;;;;6.10;2.92;;;;;;;;;;5108957;28;20032;-54
2021/03/18 01:05:13;;;;;;;9.05;3.40;;;;;;;;;;5106964;28;20046;-55
2021/03/18 01:07:40;;;;;;;16.58;3.95;;;;;;;;;;5097112;27;20024;-55
2021/03/18 01:10:08;;;;;;;6.90;3.08;;;;;;;;;;5094941;28;20073;-54
2021/03/18 01:12:34;;;;;;;8.40;3.08;;;;;;;;;;5094445;28;20503;-54
2021/03/18 01:15:01;;;;;;;6.88;3.00;;;;;;;;;;5094467;28;20028;-54
2021/03/18 01:17:28;;;;;;;4.82;3.00;;;;;;;;;;5094273;28;20034;-55
2021/03/18 01:19:54;;;;;;;9.80;3.50;;;;;;;;;;5094021;28;20063;-54
2021/03/18 01:22:20;;;;;;;8.18;3.33;;;;;;;;;;5094460;28;20362;-55
2021/03/18 01:24:46;;;;;;;7.95;4.00;;;;;;;;;;5094448;28;20032;-55
2021/03/18 01:27:12;;;;;;;7.80;3.20;;;;;;;;;;5094032;28;20474;-55
2021/03/18 01:29:38;;;;;;;5.18;3.00;;;;;;;;;;5094185;28;20028;-55
2021/03/18 01:32:04;;;;;;;8.30;3.28;;;;;;;;;;5094360;28;20039;-54
2021/03/18 01:34:30;;;;;;;7.70;3.55;;;;;;;;;;5094007;28;20020;-54
2021/03/18 01:36:56;;;;;;;7.72;3.60;;;;;;;;;;5094217;28;20020;-54
2021/03/18 01:39:22;;;;;;;9.75;4.18;;;;;;;;;;5093902;28;20024;-54
2021/03/18 01:41:48;;;;;;;5.53;3.15;;;;;;;;;;5093745;28;20415;-55
2021/03/18 01:44:14;;;;;;;5.63;3.65;;;;;;;;;;5094155;28;20028;-55
2021/03/18 01:46:40;;;;;;;7.75;3.38;;;;;;;;;;5093750;28;20052;-55
2021/03/18 01:49:06;;;;;;;5.78;3.42;;;;;;;;;;5093466;28;20465;-54
2021/03/18 01:51:32;;;;;;;12.35;4.43;;;;;;;;;;5092515;28;20066;-54
2021/03/18 01:53:58;;;;;;;7.22;3.28;;;;;;;;;;5093915;28;20028;-54
2021/03/18 01:56:24;;;;;;;6.75;3.83;;;;;;;;;;5093764;28;20027;-55
2021/03/18 01:58:51;;;;;;;6.68;3.65;;;;;;;;;;5093613;28;20434;-54
2021/03/18 02:01:20;;;;;;;7.07;3.72;;;;;;;;;;5093667;28;20028;-55
2021/03/18 02:03:47;;;;;;;5.97;3.42;;;;;;;;;;5093293;28;20057;-55
2021/03/18 02:06:13;;;;;;;12.02;3.65;;;;;;;;;;5093386;28;20035;-55
2021/03/18 02:08:39;;;;;;;6.10;3.63;;;;;;;;;;5093376;28;20024;-55
2021/03/18 02:11:06;;;;;;;5.78;3.05;;;;;;;;;;5093461;28;20034;-55
2021/03/18 02:13:32;;;;;;;8.32;3.67;;;;;;;;;;5093518;28;20067;-55
2021/03/18 02:16:03;;;;;;;7.43;3.75;;;;;;;;;;5093981;28;20031;-54
2021/03/18 02:18:42;;;;;;;8.40;3.25;;;;;;;;;;5093622;28;20024;-54
2021/03/18 02:21:26;;;;;;;6.28;3.42;;;;;;;;;;5093391;28;20024;-54
2021/03/18 02:24:11;;;;;;;10.32;3.53;;;;;;;;;;5093528;28;20103;-55
2021/03/18 02:26:55;;;;;;;6.97;3.58;;;;;;;;;;5093503;28;20028;-55
2021/03/18 02:29:44;;;;;;;7.90;4.05;;;;;;;;;;5093338;28;20109;-55
2021/03/18 02:32:13;;;;;;;6.57;4.32;;;;;;;;;;5093620;28;20024;-54
2021/03/18 02:34:42;;;;;;;15.98;5.75;;;;;;;;;;5093369;28;20464;-55
2021/03/18 02:37:10;;;;;;;8.35;4.00;;;;;;;;;;5092622;28;20032;-55
2021/03/18 02:39:51;;;;;;;9.82;4.88;;;;;;;;;;5093243;28;20012;-55
2021/03/18 02:42:19;;;;;;;8.57;4.25;;;;;;;;;;5092933;28;20035;-54
2021/03/18 02:44:47;;;;;;;11.35;5.18;;;;;;;;;;5093723;28;20039;-55
2021/03/18 02:47:14;;;;;;;8.68;4.70;;;;;;;;;;5092706;28;20028;-55
2021/03/18 02:49:43;;;;;;;11.13;4.75;;;;;;;;;;5092383;28;20073;-55
2021/03/18 02:52:12;;;;;;;13.98;5.20;;;;;;;;;;5093177;28;20038;-54
2021/03/18 02:54:38;;;;;;;9.35;4.85;;;;;;;;;;5093233;28;20088;-55
2021/03/18 02:57:06;;;;;;;8.23;4.63;;;;;;;;;;5092638;28;20085;-55
2021/03/18 02:59:34;;;;;;;8.43;4.65;;;;;;;;;;5093119;28;20028;-55
2021/03/18 03:02:02;;;;;;;9.50;4.68;;;;;;;;;;5092652;28;20028;-55
2021/03/18 03:04:29;;;;;;;9.65;4.88;;;;;;;;;;5093287;28;20028;-55
2021/03/18 03:06:55;;;;;;;8.98;5.13;;;;;;;;;;5092645;28;20027;-55
2021/03/18 03:09:22;;;;;;;8.93;4.63;;;;;;;;;;5092940;28;20031;-55
2021/03/18 03:11:48;;;;;;;7.53;4.05;;;;;;;;;;5093255;28;20020;-55
2021/03/18 03:14:15;;;;;;;7.93;4.45;;;;;;;;;;5092908;28;20043;-56
2021/03/18 03:16:42;;;;;;;10.23;4.47;;;;;;;;;;5092648;28;20467;-55
2021/03/18 03:19:08;;;;;;;10.38;4.70;;;;;;;;;;5095775;28;20484;-56
2021/03/18 03:21:34;;;;;;;8.25;4.35;;;;;;;;;;5096640;28;20445;-55
2021/03/18 03:24:01;;;;;;;15.95;5.15;;;;;;;;;;5095346;28;20032;-55
2021/03/18 03:26:27;;;;;;;9.13;4.93;;;;;;;;;;5096696;28;20046;-55
2021/03/18 03:28:54;;;;;;;8.23;4.63;;;;;;;;;;5096348;28;20028;-55
2021/03/18 03:31:21;;;;;;;11.13;5.13;;;;;;;;;;5116610;27;20027;-55
2021/03/18 03:33:47;;;;;;;11.00;4.78;;;;;;;;;;5115695;28;20076;-55
2021/03/18 03:36:13;;;;;;;10.98;4.95;;;;;;;;;;5117053;28;20088;-56
2021/03/18 03:38:40;;;;;;;8.27;3.97;;;;;;;;;;5116451;28;20111;-55
2021/03/18 03:41:06;;;;;;;6.60;4.10;;;;;;;;;;5116512;28;20467;-55
2021/03/18 03:43:33;;;;;;;11.00;5.10;;;;;;;;;;5116624;28;20044;-56
2021/03/18 03:45:59;;;;;;;10.32;4.85;;;;;;;;;;5116543;27;20148;-55
2021/03/18 03:48:26;;;;;;;17.13;5.03;;;;;;;;;;5116708;27;20340;-55
2021/03/18 03:50:52;;;;;;;10.90;6.10;;;;;;;;;;5116281;28;20388;-55
2021/03/18 03:53:22;;;;;;;7.97;4.78;;;;;;;;;;5116460;28;20084;-56
2021/03/18 03:56:00;;;;;;;11.68;4.97;;;;;;;;;;5116469;28;20028;-56
2021/03/18 03:58:35;;;;;;;10.75;4.95;;;;;;;;;;5116051;28;20028;-55
2021/03/18 04:01:03;;;;;;;10.13;4.90;;;;;;;;;;5116366;28;20103;-56
2021/03/18 04:03:30;;;;;;;10.65;5.10;;;;;;;;;;5116408;27;20059;-56
2021/03/18 04:06:00;;;;;;;14.20;5.35;;;;;;;;;;5109288;28;20112;-55
2021/03/18 04:08:27;;;;;;;10.68;4.90;;;;;;;;;;5116362;28;20102;-56
2021/03/18 04:10:54;;;;;;;10.52;5.18;;;;;;;;;;5116329;28;20074;-56
2021/03/18 04:13:21;;;;;;;9.55;5.57;;;;;;;;;;5116289;28;20020;-56
2021/03/18 04:15:48;;;;;;;9.60;4.70;;;;;;;;;;5115807;28;20024;-55
2021/03/18 04:18:14;;;;;;;12.68;6.43;;;;;;;;;;5114667;28;20020;-56
2021/03/18 04:20:41;;;;;;;13.23;5.63;;;;;;;;;;5114500;28;20032;-56
2021/03/18 04:23:12;;;;;;;18.38;5.85;;;;;;;;;;5116262;28;20039;-55
2021/03/18 04:25:38;;;;;;;13.93;5.90;;;;;;;;;;5115900;28;20326;-56
2021/03/18 04:28:05;;;;;;;8.38;4.72;;;;;;;;;;5112107;28;20124;-56
2021/03/18 04:30:31;;;;;;;9.70;5.03;;;;;;;;;;5115710;28;20024;-56
2021/03/18 04:32:58;;;;;;;14.05;4.90;;;;;;;;;;5115668;28;20374;-56
2021/03/18 04:35:25;;;;;;;10.32;4.75;;;;;;;;;;5115693;28;20111;-55
2021/03/18 04:37:51;;;;;;;10.35;4.88;;;;;;;;;;5115328;28;20326;-56
2021/03/18 04:40:19;;;;;;;8.98;4.57;;;;;;;;;;5115539;27;20016;-56
2021/03/18 04:42:45;;;;;;;14.25;4.82;;;;;;;;;;5115637;28;20326;-56
2021/03/18 04:45:12;;;;;;;9.38;5.00;;;;;;;;;;5115348;28;20023;-56
2021/03/18 04:47:39;;;;;;;10.73;5.47;;;;;;;;;;5114960;28;20480;-56
2021/03/18 04:50:06;;;;;;;9.02;5.07;;;;;;;;;;5115593;28;20111;-56
2021/03/18 04:52:32;;;;;;;12.63;5.50;;;;;;;;;;5115401;28;20211;-56
2021/03/18 04:55:00;;;;;;;14.52;5.45;;;;;;;;;;5115222;28;20023;-56
2021/03/18 04:57:26;;;;;;;11.98;5.78;;;;;;;;;;5115005;28;20344;-56
2021/03/18 04:59:53;;;;;;;12.40;5.70;;;;;;;;;;5112511;28;20076;-56
2021/03/18 05:02:19;;;;;;;12.10;5.45;;;;;;;;;;5099687;28;20036;-56
2021/03/18 05:04:46;;;;;;;10.68;5.88;;;;;;;;;;5094575;28;20464;-55
2021/03/18 05:07:15;;;;;;;7.15;4.40;;;;;;;;;;5094617;28;20020;-56
2021/03/18 05:09:43;;;;;;;11.73;4.82;;;;;;;;;;5094674;28;20059;-55
2021/03/18 05:12:10;;;;;;;18.48;5.50;;;;;;;;;;5093210;28;20034;-56
2021/03/18 05:14:36;;;;;;;13.75;5.28;;;;;;;;;;5094500;28;20065;-56
2021/03/18 05:17:03;;;;;;;11.23;5.20;;;;;;;;;;5094387;28;20024;-56
2021/03/18 05:19:30;;;;;;;10.73;5.10;;;;;;;;;;5094610;28;20117;-55
2021/03/18 05:21:56;;;;;;;10.48;5.20;;;;;;;;;;5094245;28;20024;-55
2021/03/18 05:24:22;;;;;;;11.00;5.47;;;;;;;;;;5094494;28;20028;-55
2021/03/18 05:26:48;;;;;;;10.02;4.97;;;;;;;;;;5094277;28;20021;-56
2021/03/18 05:29:15;;;;;;;11.75;5.70;;;;;;;;;;5103352;28;20031;-56
2021/03/18 05:31:41;;;;;;;11.32;5.70;;;;;;;;;;5114560;28;20019;-56
2021/03/18 05:34:07;;;;;;;11.90;5.72;;;;;;;;;;5114794;28;20107;-56
2021/03/18 05:36:34;;;;;;;11.65;5.22;;;;;;;;;;5114471;28;20020;-56
2021/03/18 05:39:00;;;;;;;12.48;5.50;;;;;;;;;;5114224;28;20027;-55
2021/03/18 05:41:27;;;;;;;9.30;4.90;;;;;;;;;;5113757;28;20080;-56
2021/03/18 05:43:53;;;;;;;7.93;5.50;;;;;;;;;;5113867;28;20055;-56
2021/03/18 05:46:19;;;;;;;11.85;5.65;;;;;;;;;;5112456;28;20329;-55
2021/03/18 05:48:45;;;;;;;11.77;5.60;;;;;;;;;;5113886;28;20038;-56
2021/03/18 05:51:16;;;;;;;9.98;5.28;;;;;;;;;;5114221;28;20016;-55
2021/03/18 05:53:43;;;;;;;13.35;5.50;;;;;;;;;;5114708;28;20093;-56
2021/03/18 05:56:13;;;;;;;10.02;5.05;;;;;;;;;;5114143;28;20119;-55
2021/03/18 05:58:39;;;;;;;9.73;5.22;;;;;;;;;;5114093;28;20070;-55
2021/03/18 06:01:05;;;;;;;10.00;5.20;;;;;;;;;;5114073;28;20023;-56
2021/03/18 06:03:31;;;;;;;17.77;6.75;;;;;;;;;;5114213;28;20038;-56
2021/03/18 06:06:00;;;;;;;10.40;5.32;;;;;;;;;;5113809;28;20098;-56
2021/03/18 06:08:26;;;;;;;12.85;5.85;;;;;;;;;;5113278;28;20019;-56
2021/03/18 06:10:52;;;;;;;11.85;5.55;;;;;;;;;;5113489;28;20348;-56
2021/03/18 06:13:18;;;;;;;11.60;5.93;;;;;;;;;;5113971;28;20106;-55
2021/03/18 06:15:44;;;;;;;15.52;6.78;;;;;;;;;;5107386;28;20032;-56
2021/03/18 06:18:12;;;;;;;10.95;3.88;;;;;;;;;;5105607;28;20032;-56
2021/03/18 06:20:38;;;;;;;10.43;5.63;;;;;;;;;;5113725;28;20356;-56
2021/03/18 06:23:08;;;;;;;10.95;6.07;;;;;;;;;;5113470;27;20043;-55
2021/03/18 06:25:37;;;;;;;9.43;5.47;;;;;;;;;;5113542;28;20452;-56
2021/03/18 06:28:19;;;;;;;10.20;5.45;;;;;;;;;;5110238;28;20035;-56
2021/03/18 06:30:59;;;;;;;13.13;5.53;;;;;;;;;;5106302;28;20019;-56
2021/03/18 06:33:26;;;;;;;12.88;6.03;;;;;;;;;;5108873;28;20452;-55
2021/03/18 06:35:53;;;;;;;15.50;7.43;;;;;;;;;;5111970;28;20338;-55
2021/03/18 06:38:25;;;;;;;12.05;6.15;;;;;;;;;;5113639;28;20094;-55
2021/03/18 06:40:51;;;;;;;12.32;5.55;;;;;;;;;;5112381;28;20358;-56
2021/03/18 06:43:17;;;;;;;14.20;6.10;;;;;;;;;;5112229;28;20042;-56
2021/03/18 06:45:44;;;;;;;18.67;6.97;;;;;;;;;;5113883;28;20027;-55
2021/03/18 06:48:12;;;;;;;20.42;6.28;;;;;;;;;;5113326;28;20042;-56
2021/03/18 06:50:48;;;;;;;15.20;6.30;;;;;;;;;;5113297;28;20111;-55
2021/03/18 06:53:21;;;;;;;12.00;5.60;;;;;;;;;;5115339;28;20034;-56
2021/03/18 06:55:48;;;;;;;11.82;5.88;;;;;;;;;;5117696;28;20110;-55
2021/03/18 06:58:15;;;;;;;13.38;5.80;;;;;;;;;;5117267;28;20102;-55
2021/03/18 07:00:42;;;;;;;11.43;5.95;;;;;;;;;;5117601;28;20059;-55
2021/03/18 07:03:11;;;;;;;13.10;6.00;;;;;;;;;;5117079;28;20407;-56
2021/03/18 07:05:38;;;;;;;10.55;5.35;;;;;;;;;;5111065;28;20453;-55
2021/03/18 07:08:05;;;;;;;11.63;5.82;;;;;;;;;;5096856;28;20024;-56
2021/03/18 07:10:32;;;;;;;15.20;6.07;;;;;;;;;;5097150;28;20020;-56
2021/03/18 07:13:17;;;;;;;14.13;5.85;;;;;;;;;;5096871;28;20403;-55
2021/03/18 07:15:43;;;;;;;12.70;5.70;;;;;;;;;;5096825;28;20031;-55
2021/03/18 07:18:10;;;;;;;15.88;5.97;;;;;;;;;;5096683;28;20031;-55
2021/03/18 07:20:36;;;;;;;12.25;5.60;;;;;;;;;;5096929;28;20020;-55
2021/03/18 07:23:12;;;;;;;11.40;5.60;;;;;;;;;;5096647;28;20043;-55
2021/03/18 07:25:44;;;;;;;15.73;6.07;;;;;;;;;;5096702;28;20391;-55
2021/03/18 07:28:10;;;;;;;14.32;5.95;;;;;;;;;;5096028;28;20476;-55
2021/03/18 07:30:38;;;;;;;13.27;6.28;;;;;;;;;;5096956;28;20022;-55
2021/03/18 07:33:05;;;;;;;12.38;6.20;;;;;;;;;;5096430;28;20357;-55
2021/03/18 07:35:32;;;;;;;9.82;5.35;;;;;;;;;;5096628;28;20024;-55
2021/03/18 07:37:58;;;;;;;14.98;5.45;;;;;;;;;;5095072;28;20352;-55
2021/03/18 07:40:25;;;;;;;12.07;5.90;;;;;;;;;;5096417;28;20095;-55
2021/03/18 07:42:52;;;;;;;17.63;5.75;;;;;;;;;;5096174;28;20043;-56
2021/03/18 07:45:19;;;;;;;12.10;6.90;;;;;;;;;;5096304;28;20106;-55
2021/03/18 07:47:46;;;;;;;15.50;6.47;;;;;;;;;;5096091;28;20028;-56
2021/03/18 07:50:13;;;;;;;14.32;6.57;;;;;;;;;;5096490;28;20024;-55
2021/03/18 07:52:40;;;;;;;14.55;5.95;;;;;;;;;;5096125;28;20035;-55
2021/03/18 07:55:08;;;;;;;12.48;5.55;;;;;;;;;;5095935;28;20052;-55
2021/03/18 07:57:42;;;;;;;12.07;5.93;;;;;;;;;;5095994;28;20035;-56
2021/03/18 08:00:09;;;;;;;17.95;6.70;;;;;;;;;;5096466;28;20391;-55
2021/03/18 08:02:35;;;;;;;14.13;6.28;;;;;;;;;;5095804;28;20028;-56
2021/03/18 08:05:01;;;;;;;19.77;5.50;;;;;;;;;;5095573;28;20043;-56
2021/03/18 08:07:42;;;;;;;11.88;6.32;;;;;;;;;;5095445;28;20442;-56
2021/03/18 08:10:08;;;;;;;11.05;5.53;;;;;;;;;;5095944;28;20032;-56
2021/03/18 08:12:41;;;;;;;13.00;6.97;;;;;;;;;;5095890;28;20022;-55
2021/03/18 08:15:23;;;;;;;14.40;6.75;;;;;;;;;;5095970;28;20038;-56
2021/03/18 08:17:51;;;;;;;14.02;6.25;;;;;;;;;;5095357;28;20120;-55
2021/03/18 08:20:36;;;;;;;14.20;6.07;;;;;;;;;;5095919;28;20483;-55
2021/03/18 08:23:21;;;;;;;17.42;6.72;;;;;;;;;;5095498;28;20035;-56
2021/03/18 08:25:47;;;;;;;14.10;6.90;;;;;;;;;;5094187;28;20357;-56
2021/03/18 08:28:32;;;;;;;14.82;6.40;;;;;;;;;;5095241;28;20024;-56
2021/03/18 08:30:58;;;;;;;15.77;7.32;;;;;;;;;;5095485;28;20073;-56
2021/03/18 08:33:31;;;;;;;18.85;6.88;;;;;;;;;;5095255;28;20031;-55
2021/03/18 08:36:16;;;;;;;15.73;6.75;;;;;;;;;;5095390;28;20449;-56
2021/03/18 08:38:42;;;;;;;18.17;7.47;;;;;;;;;;5094912;28;20077;-55
2021/03/18 08:41:08;;;;;;;17.40;6.68;;;;;;;;;;5095580;28;20445;-56
2021/03/18 08:43:54;;;;;;;15.05;6.25;;;;;;;;;;5094740;28;20054;-55
2021/03/18 08:46:41;;;;;;;12.65;6.72;;;;;;;;;;5095070;28;20016;-56
2021/03/18 08:49:20;;;;;;;14.02;6.28;;;;;;;;;;5094333;28;20024;-56
2021/03/18 08:51:50;;;;;;;17.10;7.60;;;;;;;;;;5095047;28;20105;-55
2021/03/18 08:54:34;;;;;;;18.27;6.83;;;;;;;;;;5094599;28;20239;-56
2021/03/18 08:57:00;;;;;;;14.93;6.10;;;;;;;;;;5094554;28;20035;-56
2021/03/18 08:59:26;;;;;;;20.10;7.38;;;;;;;;;;5093292;28;20161;-56
2021/03/18 09:02:02;;;;;;;13.00;6.05;;;;;;;;;;5094790;28;20087;-55
2021/03/18 09:04:47;;;;;;;16.60;6.65;;;;;;;;;;5094949;28;20031;-55
2021/03/18 09:07:16;;;;;;;17.85;6.43;;;;;;;;;;5094482;28;20169;-55
2021/03/18 09:09:42;;;;;;;13.48;7.03;;;;;;;;;;5094562;28;20024;-55
2021/03/18 09:12:09;;;;;;;12.45;6.22;;;;;;;;;;5094696;28;20043;-56
2021/03/18 09:14:36;;;;;;;13.73;7.55;;;;;;;;;;5094367;28;20027;-55
2021/03/18 09:17:03;;;;;;;11.50;5.45;;;;;;;;;;5093658;28;20445;-56
2021/03/18 09:19:29;;;;;;;11.10;4.82;;;;;;;;;;5094585;28;20066;-56
2021/03/18 09:21:55;;;;;;;16.02;7.43;;;;;;;;;;5094403;28;20036;-56
2021/03/18 09:24:21;;;;;;;12.75;6.10;;;;;;;;;;5094158;28;20092;-56
2021/03/18 09:26:47;;;;;;;11.48;6.53;;;;;;;;;;5094480;28;20028;-55
2021/03/18 09:29:13;;;;;;;14.88;6.32;;;;;;;;;;5093943;28;20032;-55
2021/03/18 09:31:39;;;;;;;13.60;7.28;;;;;;;;;;5094491;28;20043;-55
2021/03/18 09:34:06;;;;;;;13.85;7.10;;;;;;;;;;5093046;28;20070;-56
2021/03/18 09:36:33;;;;;;;14.48;6.47;;;;;;;;;;5094336;28;20031;-55
2021/03/18 09:39:12;;;;;;;17.17;8.43;;;;;;;;;;5093482;28;20322;-55
2021/03/18 09:41:45;;;;;;;13.90;8.00;;;;;;;;;;5094348;28;20077;-56
2021/03/18 09:44:12;;;;;;;22.52;6.15;;;;;;;;;;5094116;28;20039;-55
2021/03/18 09:46:40;;;;;;;9.45;5.20;;;;;;;;;;5093987;28;20024;-55
2021/03/18 09:49:06;;;;;;;11.50;5.45;;;;;;;;;;5093598;28;20024;-55
2021/03/18 09:51:36;;;;;;;14.50;5.28;;;;;;;;;;5093794;28;20024;-55
2021/03/18 09:54:05;;;;;;;14.20;6.28;;;;;;;;;;5094035;28;20016;-55
2021/03/18 09:56:35;;;;;;;8.82;5.30;;;;;;;;;;5093878;28;20070;-55
2021/03/18 09:59:06;;;;;;;8.98;5.47;;;;;;;;;;5093520;28;20032;-55
2021/03/18 10:01:32;;;;;;;12.20;5.55;;;;;;;;;;5093871;28;20035;-56
2021/03/18 10:04:09;;;;;;;13.23;5.40;;;;;;;;;;5093334;28;20036;-55
2021/03/18 10:06:36;;;;;;;10.85;4.95;;;;;;;;;;5093723;28;20016;-55
2021/03/18 10:09:14;;;;;;;9.15;4.65;;;;;;;;;;5093574;28;20027;-56
2021/03/18 10:11:41;;;;;;;12.68;5.68;;;;;;;;;;5093700;28;20024;-56
2021/03/18 10:14:07;;;;;;;11.13;5.85;;;;;;;;;;5093402;28;20016;-56
2021/03/18 10:16:34;;;;;;;16.95;6.95;;;;;;;;;;5105722;28;20020;-56
2021/03/18 10:19:00;;;;;;;11.90;3.90;;;;;;;;;;5113503;28;20073;-55
2021/03/18 10:21:26;;;;;;;6.28;3.28;;;;;;;;;;5114172;28;20352;-55
2021/03/18 10:23:52;;;;;;;4.45;2.30;;;;;;;;;;5113814;28;20031;-55
2021/03/18 10:26:24;;;;;;;11.35;4.75;;;;;;;;;;5113541;28;20403;-56
2021/03/18 10:29:00;;;;;;;13.10;4.80;;;;;;;;;;5113291;28;20028;-56
2021/03/18 10:31:27;;;;;;;7.65;3.38;;;;;;;;;;5113868;28;20019;-55
2021/03/18 10:33:53;;;;;;;10.60;4.55;;;;;;;;;;5113719;28;20406;-55
2021/03/18 10:36:32;;;;;;;4.88;3.15;;;;;;;;;;5113725;28;20023;-55
2021/03/18 10:38:59;;;;;;;8.40;3.83;;;;;;;;;;5113399;28;20098;-55
2021/03/18 10:41:25;;;;;;;12.40;3.72;;;;;;;;;;5113396;28;20020;-55
2021/03/18 10:43:51;;;;;;;7.60;4.13;;;;;;;;;;5113298;28;20043;-55
2021/03/18 10:46:19;;;;;;;7.10;3.97;;;;;;;;;;5113807;28;20043;-55
2021/03/18 10:48:51;;;;;;;5.65;2.70;;;;;;;;;;5111912;28;20027;-56
2021/03/18 10:51:19;;;;;;;8.85;4.00;;;;;;;;;;5113472;28;20028;-56
2021/03/18 10:53:46;;;;;;;5.82;3.45;;;;;;;;;;5113459;28;20016;-55
2021/03/18 10:56:30;;;;;;;4.88;3.08;;;;;;;;;;5113309;28;20027;-56
2021/03/18 10:58:56;;;;;;;5.85;3.75;;;;;;;;;;5112899;28;20035;-55
2021/03/18 11:01:24;;;;;;;8.50;4.97;;;;;;;;;;5113510;28;20062;-56
2021/03/18 11:03:50;;;;;;;6.95;3.72;;;;;;;;;;5113178;28;20043;-55
2021/03/18 11:06:20;;;;;;;8.45;3.63;;;;;;;;;;5101758;28;20341;-55
2021/03/18 11:08:50;;;;;;;6.68;3.47;;;;;;;;;;5092414;28;20040;-55
2021/03/18 11:11:17;;;;;;;9.65;3.50;;;;;;;;;;5093308;28;20028;-56
2021/03/18 11:13:44;;;;;;;4.82;2.88;;;;;;;;;;5092789;28;20492;-56
2021/03/18 11:16:11;;;;;;;5.32;3.60;;;;;;;;;;5092940;28;20035;-55
2021/03/18 11:18:38;;;;;;;6.57;3.17;;;;;;;;;;5092733;28;20017;-56
2021/03/18 11:21:06;;;;;;;8.90;3.70;;;;;;;;;;5092651;28;20030;-55
2021/03/18 11:23:34;;;;;;;7.88;4.20;;;;;;;;;;5093121;28;20115;-56
2021/03/18 11:26:01;;;;;;;8.15;3.67;;;;;;;;;;5092762;28;20048;-55
2021/03/18 11:28:28;;;;;;;9.80;4.35;;;;;;;;;;5092721;28;20024;-55
2021/03/18 11:30:56;;;;;;;8.50;5.03;;;;;;;;;;5093082;28;20020;-55
2021/03/18 11:33:28;;;;;;;10.77;4.53;;;;;;;;;;5092788;28;20111;-55
2021/03/18 11:35:54;;;;;;;6.82;4.32;;;;;;;;;;5092698;28;20032;-55
2021/03/18 11:38:20;;;;;;;7.65;3.97;;;;;;;;;;5092635;28;20040;-55
2021/03/18 11:40:47;;;;;;;10.80;4.07;;;;;;;;;;5096419;28;20016;-55
2021/03/18 11:43:14;;;;;;;9.48;3.55;;;;;;;;;;5096363;28;20096;-55
2021/03/18 11:45:40;;;;;;;5.03;3.53;;;;;;;;;;5096468;28;20035;-55
2021/03/18 11:48:06;;;;;;;7.55;3.65;;;;;;;;;;5096022;28;20107;-55
2021/03/18 11:50:33;;;;;;;6.85;3.50;;;;;;;;;;5096042;28;20468;-55
2021/03/18 11:52:59;;;;;;;9.32;4.28;;;;;;;;;;5096504;28;20032;-56
2021/03/18 11:55:25;;;;;;;8.60;3.50;;;;;;;;;;5096284;28;20027;-55
2021/03/18 11:57:57;;;;;;;7.45;3.00;;;;;;;;;;5095833;28;20034;-55
2021/03/18 12:00:24;;;;;;;6.60;3.13;;;;;;;;;;5096056;28;20039;-55
2021/03/18 12:02:50;;;;;;;4.32;2.42;;;;;;;;;;5112622;28;20104;-55
2021/03/18 12:05:16;;;;;;;6.70;3.33;;;;;;;;;;5116247;28;20345;-55
2021/03/18 12:07:42;;;;;;;7.05;2.88;;;;;;;;;;5116190;28;20015;-55
2021/03/18 12:10:08;;;;;;;6.70;2.92;;;;;;;;;;5116369;28;20027;-55
2021/03/18 12:12:34;;;;;;;6.05;3.28;;;;;;;;;;5115050;28;20082;-56
2021/03/18 12:15:01;;;;;;;7.10;3.10;;;;;;;;;;5116159;28;20030;-55
2021/03/18 12:17:27;;;;;;;7.45;3.53;;;;;;;;;;5115744;28;20023;-55
2021/03/18 12:19:53;;;;;;;6.97;2.58;;;;;;;;;;5115983;28;20032;-55
2021/03/18 12:22:19;;;;;;;6.07;2.80;;;;;;;;;;5116075;28;20036;-56
2021/03/18 12:24:45;;;;;;;11.38;4.45;;;;;;;;;;5115975;28;20024;-55
2021/03/18 12:27:11;;;;;;;14.80;6.95;;;;;;;;;;5116086;28;20180;-56
2021/03/18 12:29:37;;;;;;;10.43;5.18;;;;;;;;;;5115893;28;20024;-56
2021/03/18 12:32:03;;;;;;;7.13;4.15;;;;;;;;;;5115703;28;20031;-56
2021/03/18 12:34:30;;;;;;;6.65;3.65;;;;;;;;;;5114714;28;20023;-55
2021/03/18 12:36:56;;;;;;;9.00;3.08;;;;;;;;;;5115845;28;20035;-55
2021/03/18 12:39:22;;;;;;;5.80;3.10;;;;;;;;;;5115931;28;20020;-56
2021/03/18 12:41:48;;;;;;;6.07;3.25;;;;;;;;;;5115465;28;20092;-56
2021/03/18 12:44:14;;;;;;;7.05;3.40;;;;;;;;;;5115718;28;20032;-55
2021/03/18 12:46:41;;;;;;;5.35;2.70;;;;;;;;;;5115256;28;20031;-55
2021/03/18 12:49:07;;;;;;;7.32;3.33;;;;;;;;;;5115248;28;20026;-56
2021/03/18 12:51:35;;;;;;;10.68;3.42;;;;;;;;;;5114252;28;20110;-55
2021/03/18 12:54:01;;;;;;;7.90;3.97;;;;;;;;;;5115663;28;20020;-55
2021/03/18 12:56:27;;;;;;;8.27;3.53;;;;;;;;;;5115183;28;20027;-56
2021/03/18 12:58:53;;;;;;;7.30;3.20;;;;;;;;;;5114968;28;20035;-56
2021/03/18 13:01:19;;;;;;;10.25;2.70;;;;;;;;;;5115486;28;20020;-56
2021/03/18 13:03:45;;;;;;;5.50;3.20;;;;;;;;;;5115285;28;20170;-55
2021/03/18 13:06:11;;;;;;;7.38;3.70;;;;;;;;;;5115094;28;20065;-55
2021/03/18 13:08:37;;;;;;;5.18;3.17;;;;;;;;;;5114937;28;20027;-55
2021/03/18 13:11:04;;;;;;;5.60;2.75;;;;;;;;;;5114965;28;20333;-55
2021/03/18 13:13:30;;;;;;;8.13;3.78;;;;;;;;;;5114966;28;20024;-55
2021/03/18 13:15:56;;;;;;;13.07;3.90;;;;;;;;;;5114954;28;20103;-55
2021/03/18 13:18:23;;;;;;;5.00;2.75;;;;;;;;;;5113696;28;20365;-55
2021/03/18 13:20:49;;;;;;;3.97;2.30;;;;;;;;;;5114957;28;20022;-55
2021/03/18 13:23:15;;;;;;;4.65;2.90;;;;;;;;;;5115009;28;20261;-55
2021/03/18 13:25:41;;;;;;;5.07;3.00;;;;;;;;;;5114616;28;20024;-54
2021/03/18 13:28:08;;;;;;;5.50;2.83;;;;;;;;;;5114301;28;20031;-55
2021/03/18 13:30:34;;;;;;;7.65;3.75;;;;;;;;;;5114685;28;20055;-55
2021/03/18 13:33:00;;;;;;;5.53;3.13;;;;;;;;;;5114759;28;20039;-54
2021/03/18 13:35:27;;;;;;;7.13;3.75;;;;;;;;;;5114828;28;20020;-55
2021/03/18 13:37:53;;;;;;;6.78;3.10;;;;;;;;;;5114471;28;20453;-54
2021/03/18 13:40:19;;;;;;;10.50;4.38;;;;;;;;;;5114517;28;20016;-55
2021/03/18 13:42:45;;;;;;;7.57;4.18;;;;;;;;;;5113856;28;20047;-55
2021/03/18 13:45:14;;;;;;;8.35;3.10;;;;;;;;;;5115099;28;20027;-54
2021/03/18 13:47:40;;;;;;;5.68;2.78;;;;;;;;;;5114152;28;20039;-54
2021/03/18 13:50:07;;;;;;;8.73;2.85;;;;;;;;;;5114564;28;20028;-54
2021/03/18 13:52:33;;;;;;;7.35;2.80;;;;;;;;;;5114197;27;20023;-54
2021/03/18 13:54:59;;;;;;;4.25;2.83;;;;;;;;;;5114313;28;20459;-55
2021/03/18 13:57:25;;;;;;;4.38;2.67;;;;;;;;;;5113629;28;20398;-54
2021/03/18 13:59:51;;;;;;;5.55;2.72;;;;;;;;;;5114153;28;20050;-55
2021/03/18 14:02:18;;;;;;;3.92;2.90;;;;;;;;;;5113545;28;20441;-54
2021/03/18 14:04:44;;;;;;;4.95;2.30;;;;;;;;;;5114172;28;20039;-55
2021/03/18 14:07:10;;;;;;;4.85;2.92;;;;;;;;;;5113618;28;20093;-54
2021/03/18 14:09:36;;;;;;;7.65;3.55;;;;;;;;;;5114004;28;20020;-54
2021/03/18 14:12:03;;;;;;;5.38;3.55;;;;;;;;;;5098468;28;20080;-55
2021/03/18 14:14:29;;;;;;;7.68;4.05;;;;;;;;;;5103219;28;20027;-54
2021/03/18 14:16:55;;;;;;;5.07;3.15;;;;;;;;;;5111158;28;20008;-55
2021/03/18 14:19:21;;;;;;;10.23;3.33;;;;;;;;;;5111687;28;20095;-54
2021/03/18 14:21:47;;;;;;;4.68;3.28;;;;;;;;;;5111928;28;20032;-55
2021/03/18 14:24:13;;;;;;;6.72;3.72;;;;;;;;;;5112205;28;20035;-54
2021/03/18 14:26:39;;;;;;;5.45;3.08;;;;;;;;;;5111513;28;20119;-55
2021/03/18 14:29:05;;;;;;;4.80;3.20;;;;;;;;;;5112148;28;20106;-54
2021/03/18 14:31:31;;;;;;;8.95;3.50;;;;;;;;;;5113857;28;20068;-55
2021/03/18 14:33:57;;;;;;;8.05;3.88;;;;;;;;;;5114211;28;20028;-54
2021/03/18 14:36:23;;;;;;;6.45;3.38;;;;;;;;;;5113401;28;20055;-55
2021/03/18 14:38:49;;;;;;;6.65;3.65;;;;;;;;;;5113343;28;20147;-55
2021/03/18 14:41:15;;;;;;;4.50;2.67;;;;;;;;;;5113410;28;20472;-54